createdAt,value
2018-11-23T00:01:06.383Z,0
2018-11-23T00:04:12.343Z,0
2018-11-23T00:07:18.406Z,0
2018-11-23T00:10:24.447Z,0
2018-11-23T00:13:30.517Z,0
2018-11-23T00:16:36.587Z,0
2018-11-23T00:19:42.457Z,0
2018-11-23T00:22:48.503Z,0
2018-11-23T00:25:54.371Z,0
2018-11-23T00:29:00.423Z,0
2018-11-23T00:32:06.376Z,0
2018-11-23T00:35:12.341Z,0
2018-11-23T00:38:18.216Z,0
2018-11-23T00:41:24.323Z,0
2018-11-23T00:44:30.215Z,0
2018-11-23T00:47:36.170Z,0
2018-11-23T00:50:42.088Z,0
2018-11-23T00:53:48.097Z,0
2018-11-23T00:56:54.074Z,0
2018-11-23T00:59:59.949Z,0
2018-11-23T01:03:05.873Z,0
2018-11-23T01:06:11.945Z,0
2018-11-23T01:09:23.452Z,0
2018-11-23T01:12:29.318Z,0
2018-11-23T01:15:35.242Z,0
2018-11-23T01:18:41.295Z,0
2018-11-23T01:21:47.169Z,0
2018-11-23T01:24:53.121Z,0
2018-11-23T01:27:59.185Z,0
2018-11-23T01:31:05.047Z,0
2018-11-23T01:34:10.994Z,0
2018-11-23T01:37:16.957Z,0
2018-11-23T01:40:23.018Z,0
2018-11-23T01:43:28.980Z,0
2018-11-23T01:46:34.929Z,0
2018-11-23T01:49:40.806Z,0
2018-11-23T01:52:46.749Z,0
2018-11-23T01:55:52.807Z,0
2018-11-23T01:58:58.874Z,0
2018-11-23T02:02:04.837Z,0
2018-11-23T02:05:10.793Z,0
2018-11-23T02:08:16.671Z,0
2018-11-23T02:11:22.614Z,0
2018-11-23T02:14:28.564Z,0
2018-11-23T02:17:34.529Z,0
2018-11-23T02:20:40.498Z,0
2018-11-23T02:23:46.354Z,0
2018-11-23T02:26:52.295Z,0
2018-11-23T02:30:00.856Z,0
2018-11-23T02:33:06.885Z,0
2018-11-23T02:36:12.839Z,0
2018-11-23T02:39:18.709Z,0
2018-11-23T02:42:24.655Z,0
2018-11-23T02:45:30.532Z,0
2018-11-23T02:48:36.498Z,0
2018-11-23T02:51:42.453Z,0
2018-11-23T02:54:48.488Z,0
2018-11-23T02:57:54.568Z,0
2018-11-23T03:01:00.635Z,0
2018-11-23T03:04:06.678Z,0
2018-11-23T03:07:12.633Z,0
2018-11-23T03:10:18.504Z,0
2018-11-23T03:13:24.449Z,0
2018-11-23T03:16:30.418Z,0
2018-11-23T03:19:36.291Z,0
2018-11-23T03:22:42.229Z,0
2018-11-23T03:25:48.190Z,0
2018-11-23T03:28:54.152Z,0
2018-11-23T03:32:00.289Z,0
2018-11-23T03:35:06.420Z,0
2018-11-23T03:38:12.448Z,0
2018-11-23T03:41:18.317Z,0
2018-11-23T03:44:24.245Z,0
2018-11-23T03:47:33.033Z,0
2018-11-23T03:50:41.892Z,0.6
2018-11-23T03:53:47.774Z,135.4
2018-11-23T03:56:53.815Z,165.6
2018-11-23T03:59:59.710Z,172.8
2018-11-23T04:03:05.633Z,177.1
2018-11-23T04:06:11.693Z,179.3
2018-11-23T04:09:17.657Z,181.4
2018-11-23T04:12:23.714Z,181.4
2018-11-23T04:15:29.589Z,182.2
2018-11-23T04:18:35.590Z,182.2
2018-11-23T04:21:41.590Z,182.2
2018-11-23T04:24:47.550Z,181.4
2018-11-23T04:27:53.650Z,180.7
2018-11-23T04:30:59.677Z,181.4
2018-11-23T04:34:05.631Z,181.4
2018-11-23T04:37:11.698Z,182.2
2018-11-23T04:40:17.757Z,181.4
2018-11-23T04:43:23.639Z,182.2
2018-11-23T04:46:29.604Z,182.2
2018-11-23T04:49:35.694Z,181.4
2018-11-23T04:52:41.567Z,181.4
2018-11-23T04:55:47.553Z,180
2018-11-23T04:58:53.514Z,181.4
2018-11-23T05:01:59.524Z,180.7
2018-11-23T05:05:05.394Z,180
2018-11-23T05:08:11.390Z,180
2018-11-23T05:11:17.351Z,180
2018-11-23T05:14:23.430Z,180.7
2018-11-23T05:17:29.382Z,180.7
2018-11-23T05:20:35.332Z,184.3
2018-11-23T05:23:41.442Z,184.3
2018-11-23T05:26:47.351Z,184.3
2018-11-23T05:29:53.318Z,184.3
2018-11-23T05:32:59.317Z,185.8
2018-11-23T05:36:05.336Z,185.8
2018-11-23T05:39:11.278Z,184.3
2018-11-23T05:42:17.261Z,184.3
2018-11-23T05:45:23.228Z,74.2
2018-11-23T05:48:35.471Z,184.3
2018-11-23T05:51:44.278Z,184.3
2018-11-23T05:54:50.194Z,184.3
2018-11-23T05:57:56.263Z,183.6
2018-11-23T06:01:02.206Z,184.3
2018-11-23T06:04:08.489Z,184.3
2018-11-23T06:07:14.564Z,183.6
2018-11-23T06:10:20.438Z,182.9
2018-11-23T06:13:26.579Z,182.9
2018-11-23T06:16:32.657Z,169.2
2018-11-23T06:19:38.540Z,182.9
2018-11-23T06:22:44.555Z,184.3
2018-11-23T06:25:51.639Z,184.3
2018-11-23T06:28:57.707Z,184.3
2018-11-23T06:32:04.269Z,185.8
2018-11-23T06:35:10.153Z,184.3
2018-11-23T06:38:16.289Z,184.3
2018-11-23T06:41:22.339Z,184.3
2018-11-23T06:44:28.210Z,184.3
2018-11-23T06:47:34.169Z,184.3
2018-11-23T06:50:40.234Z,180
2018-11-23T06:53:46.218Z,184.3
2018-11-23T06:56:52.245Z,185.8
2018-11-23T06:59:58.186Z,184.3
2018-11-23T07:03:04.170Z,187.2
2018-11-23T07:06:10.131Z,185.8
2018-11-23T07:09:17.214Z,187.2
2018-11-23T07:12:23.228Z,187.2
2018-11-23T07:15:29.142Z,187.2
2018-11-23T07:18:35.093Z,187.2
2018-11-23T07:21:41.154Z,187.2
2018-11-23T07:24:47.028Z,187.2
2018-11-23T07:27:52.975Z,187.2
2018-11-23T07:31:05.266Z,187.2
2018-11-23T07:34:11.285Z,187.2
2018-11-23T07:37:18.988Z,187.2
2018-11-23T07:40:25.684Z,187.2
2018-11-23T07:43:31.855Z,187.2
2018-11-23T07:46:38.388Z,187.2
2018-11-23T07:49:44.835Z,187.2
2018-11-23T07:52:53.222Z,188.6
2018-11-23T07:56:01.964Z,187.2
2018-11-23T07:59:08.332Z,188.6
2018-11-23T08:02:14.281Z,188.6
2018-11-23T08:05:20.553Z,190.1
2018-11-23T08:08:26.742Z,188.6
2018-11-23T08:11:33.799Z,188.6
2018-11-23T08:14:39.691Z,188.6
2018-11-23T08:17:45.638Z,188.6
2018-11-23T08:20:51.677Z,190.1
2018-11-23T08:23:57.644Z,188.6
2018-11-23T08:27:03.822Z,188.6
2018-11-23T08:30:10.083Z,188.6
2018-11-23T08:33:16.127Z,190.1
2018-11-23T08:36:23.315Z,188.6
2018-11-23T08:39:29.392Z,190.1
2018-11-23T08:42:35.336Z,188.6
2018-11-23T08:45:41.513Z,190.1
2018-11-23T08:48:48.593Z,191.5
2018-11-23T08:51:54.505Z,191.5
2018-11-23T08:55:00.702Z,191.5
2018-11-23T08:58:06.848Z,191.5
2018-11-23T09:01:13.210Z,191.5
2018-11-23T09:04:19.161Z,191.5
2018-11-23T09:07:25.368Z,191.5
2018-11-23T09:10:31.242Z,190.1
2018-11-23T09:13:37.695Z,190.1
2018-11-23T09:16:43.631Z,191.5
2018-11-23T09:19:50.070Z,191.5
2018-11-23T09:22:57.405Z,191.5
2018-11-23T09:26:03.684Z,191.5
2018-11-23T09:29:10.068Z,191.5
2018-11-23T09:32:16.924Z,191.5
2018-11-23T09:35:23.959Z,190.1
2018-11-23T09:38:29.886Z,190.1
2018-11-23T09:41:35.842Z,191.5
2018-11-23T09:44:41.985Z,190.1
2018-11-23T09:47:47.861Z,194.4
2018-11-23T09:50:53.934Z,195.8
2018-11-23T09:53:59.880Z,191.5
2018-11-23T09:57:05.844Z,195.8
2018-11-23T10:00:13.264Z,194.4
2018-11-23T10:03:19.228Z,193
2018-11-23T10:06:25.308Z,193
2018-11-23T10:09:31.310Z,194.4
2018-11-23T10:12:37.275Z,194.4
2018-11-23T10:15:43.542Z,188.6
2018-11-23T10:18:49.474Z,195.8
2018-11-23T10:21:55.461Z,195.8
2018-11-23T10:25:01.618Z,197.3
2018-11-23T10:28:07.905Z,200.2
2018-11-23T10:31:14.076Z,197.3
2018-11-23T10:34:19.967Z,197.3
2018-11-23T10:37:26.126Z,198.7
2018-11-23T10:40:32.010Z,197.3
2018-11-23T10:43:37.987Z,198.7
2018-11-23T10:46:43.959Z,124.6
2018-11-23T11:01:47.385Z,115.2
2018-11-23T11:18:16.696Z,105.8
2018-11-23T11:21:22.991Z,177.1
2018-11-23T11:24:30.201Z,193
2018-11-23T11:27:36.348Z,194.4
2018-11-23T11:30:42.504Z,194.4
2018-11-23T11:33:48.467Z,194.4
2018-11-23T11:36:54.453Z,194.4
2018-11-23T11:40:00.698Z,194.4
2018-11-23T11:43:06.745Z,194.4
2018-11-23T11:46:13.123Z,195.8
2018-11-23T11:49:19.183Z,194.4
2018-11-23T11:52:25.406Z,194.4
2018-11-23T11:55:31.548Z,194.4
2018-11-23T11:58:37.489Z,194.4
2018-11-23T12:01:43.540Z,194.4
2018-11-23T12:04:51.050Z,194.4
2018-11-23T12:07:59.239Z,194.4
2018-11-23T12:11:06.398Z,193
2018-11-23T12:14:13.621Z,188.6
2018-11-23T12:17:22.095Z,190.1
2018-11-23T12:20:33.601Z,187.2
2018-11-23T12:23:42.694Z,187.2
2018-11-23T12:26:49.758Z,185.8
2018-11-23T12:29:55.730Z,187.2
2018-11-23T12:33:01.874Z,185.8
2018-11-23T12:36:07.981Z,187.2
2018-11-23T12:39:13.984Z,185.8
2018-11-23T12:42:20.130Z,187.2
2018-11-23T12:45:26.317Z,190.1
2018-11-23T12:48:32.416Z,188.6
2018-11-23T12:51:41.421Z,188.6
2018-11-23T12:54:47.374Z,187.2
2018-11-23T12:57:54.448Z,185.8
2018-11-23T13:01:00.577Z,184.3
2018-11-23T13:04:06.534Z,187.2
2018-11-23T13:07:12.593Z,184.3
2018-11-23T13:10:18.704Z,182.2
2018-11-23T13:13:25.051Z,181.4
2018-11-23T13:16:31.318Z,180.7
2018-11-23T13:19:38.326Z,181.4
2018-11-23T13:22:45.319Z,181.4
2018-11-23T13:25:53.524Z,180.7
2018-11-23T13:29:16.994Z,180.7
2018-11-23T13:32:23.106Z,180.7
2018-11-23T13:35:29.142Z,181.4
2018-11-23T13:38:35.194Z,181.4
2018-11-23T13:41:41.448Z,181.4
2018-11-23T13:44:48.472Z,180
2018-11-23T13:47:54.482Z,180.7
2018-11-23T13:51:00.849Z,180
2018-11-23T13:54:07.071Z,179.3
2018-11-23T13:57:13.096Z,179.3
2018-11-23T14:00:19.344Z,180
2018-11-23T14:03:25.674Z,179.3
2018-11-23T14:06:31.675Z,179.3
2018-11-23T14:09:38.123Z,180
2018-11-23T14:12:44.206Z,180.7
2018-11-23T14:15:50.175Z,180.7
2018-11-23T14:18:56.344Z,180
2018-11-23T14:22:02.473Z,180
2018-11-23T14:25:08.534Z,179.3
2018-11-23T14:28:14.805Z,180
2018-11-23T14:31:20.945Z,180
2018-11-23T14:34:26.945Z,179.3
2018-11-23T14:37:33.104Z,179.3
2018-11-23T14:40:40.110Z,177.1
2018-11-23T14:43:46.055Z,179.3
2018-11-23T14:46:52.215Z,177.8
2018-11-23T14:49:58.191Z,181.4
2018-11-23T14:53:04.340Z,180.7
2018-11-23T14:56:10.405Z,181.4
2018-11-23T14:59:16.380Z,180.7
2018-11-23T15:02:22.344Z,180.7
2018-11-23T15:05:28.504Z,180
2018-11-23T15:08:34.377Z,180
2018-11-23T15:11:40.614Z,180
2018-11-23T15:14:46.548Z,180
2018-11-23T15:17:52.832Z,179.3
2018-11-23T15:20:58.683Z,179.3
2018-11-23T15:24:04.856Z,180
2018-11-23T15:27:10.920Z,180.7
2018-11-23T15:30:16.878Z,181.4
2018-11-23T15:33:22.956Z,180
2018-11-23T15:36:28.981Z,180
2018-11-23T15:39:34.973Z,180
2018-11-23T15:42:43.028Z,180
2018-11-23T15:45:50.006Z,180.7
2018-11-23T15:48:55.892Z,180
2018-11-23T15:52:02.975Z,179.3
2018-11-23T15:55:08.704Z,200.2
2018-11-23T15:58:14.707Z,181.4
2018-11-23T16:01:20.661Z,152.6
2018-11-23T16:04:26.948Z,92.2
2018-11-23T16:07:33.105Z,185.8
2018-11-23T16:10:39.381Z,185.8
2018-11-23T16:13:45.431Z,184.3
2018-11-23T16:16:51.565Z,185.8
2018-11-23T16:19:57.441Z,187.2
2018-11-23T16:23:03.504Z,185.8
2018-11-23T16:26:09.474Z,187.2
2018-11-23T16:29:15.435Z,187.2
2018-11-23T16:32:21.368Z,185.8
2018-11-23T16:35:30.166Z,185.8
2018-11-23T16:38:36.174Z,185.8
2018-11-23T16:41:42.339Z,185.8
2018-11-23T16:44:48.489Z,187.2
2018-11-23T16:47:57.178Z,175.7
2018-11-23T16:51:03.208Z,184.3
2018-11-23T16:54:09.349Z,185.8
2018-11-23T16:57:15.301Z,187.2
2018-11-23T17:00:21.368Z,187.2
2018-11-23T17:03:27.428Z,187.2
2018-11-23T17:06:33.491Z,187.2
2018-11-23T17:09:39.369Z,187.2
2018-11-23T17:12:45.304Z,187.2
2018-11-23T17:15:51.366Z,188.6
2018-11-23T17:18:57.428Z,187.2
2018-11-23T17:22:03.297Z,188.6
2018-11-23T17:25:09.245Z,188.6
2018-11-23T17:28:18.071Z,188.6
2018-11-23T17:31:24.042Z,188.6
2018-11-23T17:34:29.997Z,188.6
2018-11-23T17:37:36.151Z,188.6
2018-11-23T17:40:42.213Z,188.6
2018-11-23T17:43:48.182Z,188.6
2018-11-23T17:46:54.136Z,188.6
2018-11-23T17:50:00.255Z,188.6
2018-11-23T17:53:06.258Z,185.8
2018-11-23T17:56:12.308Z,185.8
2018-11-23T17:59:18.333Z,185.8
2018-11-23T18:02:24.344Z,185.8
2018-11-23T18:05:30.295Z,187.2
2018-11-23T18:08:41.791Z,188.6
2018-11-23T18:11:47.754Z,188.6
2018-11-23T18:14:53.795Z,188.6
2018-11-23T18:17:59.770Z,188.6
2018-11-23T18:21:05.733Z,185.8
2018-11-23T18:24:11.699Z,185.8
2018-11-23T18:27:17.840Z,188.6
2018-11-23T18:30:23.821Z,188.6
2018-11-23T18:33:29.874Z,188.6
2018-11-23T18:36:35.833Z,187.2
2018-11-23T18:39:41.998Z,188.6
2018-11-23T18:42:48.064Z,187.2
2018-11-23T18:45:54.113Z,188.6
2018-11-23T18:49:00.174Z,188.6
2018-11-23T18:52:06.246Z,188.6
2018-11-23T18:55:19.771Z,188.6
2018-11-23T18:58:25.735Z,190.1
2018-11-23T19:01:31.800Z,188.6
2018-11-23T19:04:37.868Z,190.1
2018-11-23T19:07:43.802Z,188.6
2018-11-23T19:10:49.777Z,190.1
2018-11-23T19:13:55.733Z,190.1
2018-11-23T19:17:01.786Z,190.1
2018-11-23T19:20:07.724Z,190.1
2018-11-23T19:23:13.734Z,190.1
2018-11-23T19:26:19.670Z,190.1
2018-11-23T19:29:25.635Z,190.1
2018-11-23T19:32:31.647Z,190.1
2018-11-23T19:35:37.664Z,190.1
2018-11-23T19:38:43.597Z,190.1
2018-11-23T19:41:49.595Z,188.6
2018-11-23T19:44:55.541Z,190.1
2018-11-23T19:48:01.500Z,190.1
2018-11-23T19:51:07.456Z,190.1
2018-11-23T19:54:13.334Z,190.1
2018-11-23T19:57:19.273Z,190.1
2018-11-23T20:00:25.219Z,188.6
2018-11-23T20:03:31.301Z,2.2
2018-11-23T20:06:44.319Z,2.2
2018-11-23T20:09:50.382Z,2.2
2018-11-23T20:12:56.370Z,0.5
2018-11-23T20:16:02.305Z,0
2018-11-23T20:19:08.259Z,0
2018-11-23T20:22:14.320Z,0
2018-11-23T20:25:20.294Z,0
2018-11-23T20:28:26.340Z,0
2018-11-23T20:31:32.399Z,0
2018-11-23T20:34:38.462Z,0
2018-11-23T20:37:44.420Z,0
2018-11-23T20:40:52.638Z,0
2018-11-23T20:43:58.570Z,0
2018-11-23T20:47:04.652Z,0
2018-11-23T20:50:10.669Z,0
2018-11-23T20:53:16.681Z,0
2018-11-23T20:56:22.795Z,0
2018-11-23T20:59:28.671Z,0
2018-11-23T21:02:34.653Z,0
2018-11-23T21:05:40.815Z,0
2018-11-23T21:08:46.879Z,0
2018-11-23T21:11:52.753Z,0
2018-11-23T21:14:58.698Z,0
2018-11-23T21:18:04.921Z,0
2018-11-23T21:21:10.921Z,0
2018-11-23T21:24:16.881Z,0
2018-11-23T21:27:22.850Z,0
2018-11-23T21:30:28.901Z,0
2018-11-23T21:33:34.966Z,0
2018-11-23T21:36:40.848Z,0
2018-11-23T21:39:46.776Z,0
2018-11-23T21:42:52.727Z,0
2018-11-23T21:45:58.706Z,0
2018-11-23T21:49:04.682Z,0
2018-11-23T21:52:10.568Z,0
2018-11-23T21:55:16.590Z,0
2018-11-23T21:58:22.535Z,0
2018-11-23T22:01:28.495Z,0
2018-11-23T22:04:34.423Z,0
2018-11-23T22:07:40.412Z,0
2018-11-23T22:10:46.287Z,0
2018-11-23T22:13:52.235Z,0
2018-11-23T22:16:58.200Z,0
2018-11-23T22:20:04.133Z,0
2018-11-23T22:23:10.316Z,0
2018-11-23T22:26:16.481Z,0
2018-11-23T22:29:22.410Z,0
2018-11-23T22:32:28.406Z,0
2018-11-23T22:35:34.291Z,0
2018-11-23T22:38:40.317Z,0
2018-11-23T22:41:46.272Z,0
2018-11-23T22:44:52.337Z,0
2018-11-23T22:47:58.376Z,0
2018-11-23T22:51:04.367Z,0
2018-11-23T22:54:10.419Z,0
2018-11-23T22:57:16.292Z,0
2018-11-23T23:00:22.332Z,0
2018-11-23T23:03:28.205Z,0
2018-11-23T23:06:34.153Z,0
2018-11-23T23:09:40.220Z,0
2018-11-23T23:12:46.282Z,0
2018-11-23T23:15:52.340Z,0
2018-11-23T23:18:58.212Z,0
2018-11-23T23:22:04.878Z,0
2018-11-23T23:25:10.831Z,0
2018-11-23T23:28:16.790Z,0
2018-11-23T23:31:22.956Z,0
2018-11-23T23:34:28.831Z,0
2018-11-23T23:37:34.779Z,0
2018-11-23T23:40:40.731Z,0
2018-11-23T23:43:46.691Z,0
2018-11-23T23:46:52.751Z,0
2018-11-23T23:49:58.810Z,0
2018-11-23T23:53:04.874Z,0
2018-11-23T23:56:10.786Z,0
2018-11-23T23:59:16.689Z,0
